Time;durP1;ratioP1;P1;durP2;ratioP2;P2;SDS_P1;SDS_P2;PMS_P1;PMS_P2;Temp;Humidity;BMP_temperature;BMP_pressure;BME280_temperature;BME280_humidity;BME280_pressure;Samples;Min_cycle;Max_cycle;Signal;HPM_P1;HPM_P2
2023/01/14 00:00:20;;;;;;;10.03;3.97;;;;;20.00;100394.00;;;;2079074;28;20221;-50
2023/01/14 00:01:27;;;;;;;7.93;3.40;;;;;20.00;100386.00;;;;2078888;28;20214;-49
2023/01/14 00:02:28;;;;;;;8.88;3.58;;;;;20.00;100384.00;;;;2078372;28;20217;-51
2023/01/14 00:03:28;;;;;;;11.50;3.77;;;;;20.00;100392.00;;;;2079502;28;20352;-51
2023/01/14 00:04:29;;;;;;;12.23;4.20;;;;;20.00;100399.00;;;;2079219;28;20223;-49
2023/01/14 00:05:29;;;;;;;8.03;3.40;;;;;20.00;100390.00;;;;2079081;28;20214;-50
2023/01/14 00:06:31;;;;;;;9.30;3.70;;;;;20.00;100385.00;;;;2079171;28;20724;-51
2023/01/14 00:07:31;;;;;;;10.30;3.53;;;;;20.00;100384.00;;;;2079391;28;20227;-49
2023/01/14 00:08:31;;;;;;;8.33;3.53;;;;;20.00;100382.00;;;;2078860;28;20721;-49
2023/01/14 00:09:32;;;;;;;10.40;4.17;;;;;19.90;100392.00;;;;2078852;28;20288;-51
2023/01/14 00:10:32;;;;;;;11.00;3.30;;;;;19.90;100388.00;;;;2079273;28;20232;-50
2023/01/14 00:11:50;;;;;;;11.23;3.43;;;;;20.00;100385.00;;;;2079330;28;20208;-50
2023/01/14 00:12:50;;;;;;;11.30;4.28;;;;;19.90;100383.00;;;;2070245;28;20293;-50
2023/01/14 00:13:50;;;;;;;10.50;3.53;;;;;19.90;100380.00;;;;2070752;28;20214;-50
2023/01/14 00:14:51;;;;;;;7.73;3.43;;;;;19.90;100380.00;;;;2063084;28;20737;-50
2023/01/14 00:15:52;;;;;;;11.67;3.77;;;;;19.90;100372.00;;;;2062778;28;20629;-50
2023/01/14 00:16:53;;;;;;;9.68;3.40;;;;;19.90;100366.00;;;;2062255;28;20656;-50
2023/01/14 00:17:53;;;;;;;11.27;3.77;;;;;19.90;100370.00;;;;2061599;28;20223;-50
2023/01/14 00:18:53;;;;;;;14.37;4.13;;;;;19.90;100368.00;;;;2062979;28;20262;-50
2023/01/14 00:19:54;;;;;;;9.23;4.13;;;;;19.90;100373.00;;;;2062894;28;20221;-50
2023/01/14 00:20:56;;;;;;;9.43;3.40;;;;;19.90;100367.00;;;;2062945;28;20211;-50
2023/01/14 00:21:56;;;;;;;7.88;3.33;;;;;19.90;100371.00;;;;2061423;28;20606;-50
2023/01/14 00:22:57;;;;;;;9.87;3.80;;;;;19.90;100367.00;;;;2062886;28;20297;-50
2023/01/14 00:23:57;;;;;;;9.53;3.80;;;;;19.90;100370.00;;;;2062898;28;20892;-51
2023/01/14 00:24:58;;;;;;;5.77;2.60;;;;;19.90;100370.00;;;;2062833;28;20726;-51
2023/01/14 00:26:02;;;;;;;9.70;3.80;;;;;19.90;100372.00;;;;2062690;28;20218;-49
2023/01/14 00:27:03;;;;;;;7.78;3.05;;;;;19.90;100360.00;;;;2073675;28;20221;-50
2023/01/14 00:28:03;;;;;;;6.30;3.27;;;;;19.90;100376.00;;;;2078015;28;20237;-49
2023/01/14 00:29:04;;;;;;;10.43;3.40;;;;;19.90;100373.00;;;;2078226;28;20236;-51
2023/01/14 00:30:04;;;;;;;10.13;3.77;;;;;19.90;100371.00;;;;2079286;28;20247;-50
2023/01/14 00:31:13;;;;;;;8.80;3.33;;;;;19.90;100374.00;;;;2079240;28;20249;-50
2023/01/14 00:32:14;;;;;;;10.88;3.50;;;;;19.90;100389.00;;;;2078034;28;20527;-50
2023/01/14 00:33:14;;;;;;;8.17;3.43;;;;;19.90;100370.00;;;;2068287;28;20215;-51
2023/01/14 00:34:14;;;;;;;12.87;4.10;;;;;19.90;100387.00;;;;2075738;28;20218;-50
2023/01/14 00:35:15;;;;;;;8.80;3.33;;;;;19.90;100381.00;;;;2079159;28;20218;-50
2023/01/14 00:36:17;;;;;;;7.57;3.00;;;;;19.90;100378.00;;;;2079004;28;20217;-50
2023/01/14 00:37:17;;;;;;;10.05;4.35;;;;;19.90;100373.00;;;;2079066;28;20225;-50
2023/01/14 00:38:18;;;;;;;10.17;3.47;;;;;19.80;100379.00;;;;2079327;28;20248;-49
2023/01/14 00:39:18;;;;;;;10.27;4.20;;;;;19.80;100373.00;;;;2078935;28;20217;-50
2023/01/14 00:40:18;;;;;;;12.50;3.60;;;;;19.80;100391.00;;;;2079456;28;20228;-50
2023/01/14 00:41:21;;;;;;;8.77;3.03;;;;;19.80;100380.00;;;;2078519;28;20593;-50
2023/01/14 00:42:21;;;;;;;12.75;3.30;;;;;19.80;100384.00;;;;2077402;28;20634;-50
2023/01/14 00:43:21;;;;;;;9.57;3.20;;;;;19.80;100382.00;;;;2078580;28;20218;-50
2023/01/14 00:44:22;;;;;;;8.40;3.47;;;;;19.80;100392.00;;;;2078070;28;20209;-50
2023/01/14 00:45:22;;;;;;;8.57;3.17;;;;;19.80;100393.00;;;;2077786;28;20214;-50
2023/01/14 00:46:27;;;;;;;7.83;3.50;;;;;19.80;100393.00;;;;2078925;28;20209;-50
2023/01/14 00:47:28;;;;;;;10.85;3.15;;;;;19.80;100381.00;;;;2078598;28;20316;-51
2023/01/14 00:48:28;;;;;;;11.17;3.10;;;;;19.80;100382.00;;;;2078091;28;20220;-49
2023/01/14 00:49:28;;;;;;;10.70;3.60;;;;;19.70;100390.00;;;;2078884;28;20224;-50
2023/01/14 00:50:29;;;;;;;8.37;3.30;;;;;19.80;100393.00;;;;2078235;28;20217;-51
2023/01/14 00:51:29;;;;;;;8.80;3.43;;;;;19.80;100401.00;;;;2078449;28;20224;-50
2023/01/14 00:52:30;;;;;;;7.17;3.20;;;;;19.80;100394.00;;;;2077923;28;20285;-50
2023/01/14 00:53:30;;;;;;;10.03;3.00;;;;;19.80;100389.00;;;;2079076;28;20205;-52
2023/01/14 00:54:32;;;;;;;9.10;2.90;;;;;19.80;100387.00;;;;2078058;28;20296;-50
2023/01/14 00:55:34;;;;;;;7.38;2.72;;;;;19.80;100387.00;;;;2078810;28;20213;-50
2023/01/14 00:56:34;;;;;;;9.23;3.70;;;;;19.80;100392.00;;;;2079132;28;20297;-50
2023/01/14 00:57:34;;;;;;;13.27;3.27;;;;;19.80;100395.00;;;;2079077;28;20571;-50
2023/01/14 00:58:35;;;;;;;9.40;3.80;;;;;19.70;100395.00;;;;2079227;28;20209;-50
2023/01/14 00:59:35;;;;;;;11.97;3.90;;;;;19.70;100390.00;;;;2078857;28;20214;-50
2023/01/14 01:00:35;;;;;;;12.27;3.30;;;;;19.70;100398.00;;;;2078709;28;20289;-50
2023/01/14 01:01:36;;;;;;;10.87;3.23;;;;;19.80;100409.00;;;;2078927;28;20228;-50
2023/01/14 01:02:36;;;;;;;9.23;3.27;;;;;19.70;100408.00;;;;2077671;28;20213;-50
2023/01/14 01:03:41;;;;;;;8.63;3.23;;;;;19.70;100405.00;;;;2078904;28;20296;-50
2023/01/14 01:04:41;;;;;;;10.23;3.28;;;;;19.70;100402.00;;;;2078877;28;20213;-50
2023/01/14 01:05:42;;;;;;;11.50;3.60;;;;;19.80;100411.00;;;;2078502;28;20637;-50
2023/01/14 01:06:42;;;;;;;11.40;3.23;;;;;19.80;100410.00;;;;2079075;28;20568;-49
2023/01/14 01:07:43;;;;;;;9.77;3.60;;;;;19.70;100412.00;;;;2079088;28;20213;-49
2023/01/14 01:08:43;;;;;;;9.20;3.47;;;;;19.70;100414.00;;;;2079109;28;20268;-50
2023/01/14 01:09:43;;;;;;;9.97;3.53;;;;;19.70;100407.00;;;;2078884;28;21403;-51
2023/01/14 01:10:44;;;;;;;9.63;3.47;;;;;19.70;100417.00;;;;2069420;28;20218;-50
2023/01/14 01:11:45;;;;;;;11.67;3.93;;;;;19.60;100422.00;;;;2069778;28;20222;-50
2023/01/14 01:12:45;;;;;;;9.20;3.00;;;;;19.60;100421.00;;;;2077286;28;20452;-50
2023/01/14 01:13:45;;;;;;;10.50;3.10;;;;;19.60;100421.00;;;;2077874;28;20213;-51
2023/01/14 01:14:47;;;;;;;9.70;3.07;;;;;19.60;100423.00;;;;2070707;28;20218;-50
2023/01/14 01:15:47;;;;;;;9.25;3.10;;;;;19.70;100422.00;;;;2070293;28;20603;-51
2023/01/14 01:16:48;;;;;;;8.57;3.07;;;;;19.70;100429.00;;;;2070620;28;20261;-50
2023/01/14 01:17:48;;;;;;;7.77;2.57;;;;;19.70;100422.00;;;;2070377;28;20276;-49
2023/01/14 01:18:49;;;;;;;11.23;3.10;;;;;19.60;100428.00;;;;2064244;28;20242;-51
2023/01/14 01:19:50;;;;;;;7.83;2.77;;;;;19.60;100437.00;;;;2070623;28;20229;-50
2023/01/14 01:20:51;;;;;;;10.25;3.63;;;;;19.60;100435.00;;;;2070809;28;20233;-50
2023/01/14 01:21:51;;;;;;;8.77;3.23;;;;;19.60;100441.00;;;;2069166;28;20218;-51
2023/01/14 01:22:51;;;;;;;10.07;3.13;;;;;19.60;100432.00;;;;2070623;28;20229;-50
2023/01/14 01:23:52;;;;;;;10.43;2.90;;;;;19.70;100430.00;;;;2070545;28;20210;-51
2023/01/14 01:24:52;;;;;;;10.10;2.80;;;;;19.70;100431.00;;;;2070887;28;20229;-50
2023/01/14 01:26:00;;;;;;;13.70;3.43;;;;;19.60;100425.00;;;;2069460;28;20301;-51
2023/01/14 01:27:00;;;;;;;11.50;3.25;;;;;19.60;100427.00;;;;2075700;28;20221;-50
2023/01/14 01:28:01;;;;;;;11.43;3.53;;;;;19.60;100429.00;;;;2079070;28;20213;-49
2023/01/14 01:29:01;;;;;;;9.83;3.30;;;;;19.60;100425.00;;;;2078341;28;20283;-50
2023/01/14 01:30:01;;;;;;;8.17;3.20;;;;;19.70;100423.00;;;;2078252;28;20209;-50
2023/01/14 01:31:03;;;;;;;10.27;4.27;;;;;19.70;100423.00;;;;2078635;28;20205;-49
2023/01/14 01:32:03;;;;;;;6.60;2.60;;;;;19.60;100421.00;;;;2077480;28;20216;-50
2023/01/14 01:33:04;;;;;;;9.00;3.50;;;;;19.60;100428.00;;;;2075362;28;20213;-51
2023/01/14 01:34:04;;;;;;;11.57;3.33;;;;;19.60;100428.00;;;;2070799;28;20210;-51
2023/01/14 01:35:05;;;;;;;10.97;3.27;;;;;19.60;100430.00;;;;2070669;28;20264;-51
2023/01/14 01:36:07;;;;;;;9.67;3.63;;;;;19.60;100433.00;;;;2070671;28;20207;-50
2023/01/14 01:37:07;;;;;;;9.68;3.60;;;;;19.60;100429.00;;;;2069900;28;20225;-50
2023/01/14 01:38:08;;;;;;;10.97;3.10;;;;;19.60;100434.00;;;;2069945;28;20297;-51
2023/01/14 01:39:08;;;;;;;8.10;2.93;;;;;19.60;100440.00;;;;2070905;28;20210;-50
2023/01/14 01:40:09;;;;;;;13.27;3.70;;;;;19.50;100436.00;;;;2070958;28;20682;-50
2023/01/14 01:41:23;;;;;;;11.05;3.30;;;;;19.60;100448.00;;;;2070639;28;20214;-51
2023/01/14 01:42:23;;;;;;;11.43;3.40;;;;;19.60;100447.00;;;;2075560;28;20281;-50
2023/01/14 01:43:26;;;;;;;10.00;3.13;;;;;19.60;100436.00;;;;2078808;28;20217;-50
2023/01/14 01:44:26;;;;;;;9.10;3.28;;;;;19.60;100444.00;;;;2077989;28;20727;-51
2023/01/14 01:45:45;;;;;;;8.67;3.03;;;;;19.60;100437.00;;;;2078038;28;20218;-50
2023/01/14 01:46:46;;;;;;;10.60;3.70;;;;;19.50;100439.00;;;;2077852;28;20556;-50
2023/01/14 01:47:47;;;;;;;9.37;3.23;;;;;19.60;100447.00;;;;2075778;28;20309;-49
2023/01/14 01:48:47;;;;;;;11.27;3.50;;;;;19.60;100453.00;;;;2069526;28;20217;-50
2023/01/14 01:49:48;;;;;;;8.07;2.63;;;;;19.60;100436.00;;;;2061828;28;20211;-50
2023/01/14 01:50:51;;;;;;;10.40;3.27;;;;;19.60;100452.00;;;;2070050;28;20289;-50
2023/01/14 01:51:58;;;;;;;10.40;3.50;;;;;19.60;100456.00;;;;2058308;28;20210;-50
2023/01/14 01:52:59;;;;;;;8.50;2.95;;;;;19.50;100440.00;;;;2062630;28;20230;-50
2023/01/14 01:53:59;;;;;;;8.00;2.90;;;;;19.50;100454.00;;;;2053341;28;20238;-50
2023/01/14 01:55:02;;;;;;;11.57;3.70;;;;;19.50;100458.00;;;;2061704;28;20262;-50
2023/01/14 01:56:03;;;;;;;9.82;3.17;;;;;19.50;100452.00;;;;2068323;28;20213;-52
2023/01/14 01:57:03;;;;;;;8.40;3.20;;;;;19.50;100446.00;;;;2070012;28;20365;-52
2023/01/14 01:58:04;;;;;;;8.73;3.03;;;;;19.50;100452.00;;;;2059860;28;20249;-50
2023/01/14 01:59:06;;;;;;;7.57;3.30;;;;;19.50;100442.00;;;;2061549;28;20210;-50
2023/01/14 02:00:08;;;;;;;9.60;3.22;;;;;19.50;100438.00;;;;2060176;28;20785;-50
2023/01/14 02:01:09;;;;;;;8.63;3.00;;;;;19.50;100442.00;;;;2054181;28;20270;-50
2023/01/14 02:02:09;;;;;;;9.77;3.00;;;;;19.50;100448.00;;;;2068584;28;20751;-51
2023/01/14 02:03:20;;;;;;;8.63;3.77;;;;;19.50;100435.00;;;;2060786;28;20567;-50
2023/01/14 02:04:20;;;;;;;8.27;3.05;;;;;19.50;100439.00;;;;2062515;28;20233;-54
2023/01/14 02:05:21;;;;;;;9.17;2.80;;;;;19.50;100428.00;;;;2079251;28;20720;-51
2023/01/14 02:06:23;;;;;;;7.67;2.80;;;;;19.50;100434.00;;;;2079441;28;20299;-50
2023/01/14 02:07:25;;;;;;;8.50;3.25;;;;;19.50;100451.00;;;;2079579;28;20221;-50
2023/01/14 02:08:25;;;;;;;9.48;3.42;;;;;19.50;100437.00;;;;2074885;28;20214;-50
2023/01/14 02:09:25;;;;;;;8.63;3.23;;;;;19.50;100441.00;;;;2071085;28;20214;-50
2023/01/14 02:10:34;;;;;;;10.60;3.67;;;;;19.50;100444.00;;;;2063055;28;20221;-50
2023/01/14 02:11:56;;;;;;;9.35;3.05;;;;;19.50;100437.00;;;;2059676;28;20315;-50
2023/01/14 02:13:20;;;;;;;8.98;3.20;;;;;19.50;100431.00;;;;2069602;28;20202;-50
2023/01/14 02:14:34;;;;;;;9.30;3.35;;;;;19.50;100436.00;;;;2073434;28;20302;-50
2023/01/14 02:16:04;;;;;;;9.32;3.30;;;;;19.50;100431.00;;;;2067869;28;20210;-56
2023/01/14 02:17:27;;;;;;;10.10;3.00;;;;;19.50;100438.00;;;;2077541;28;20260;-50
2023/01/14 02:18:51;;;;;;;8.35;2.80;;;;;19.50;100441.00;;;;2079082;28;20228;-50
2023/01/14 02:20:18;;;;;;;11.38;3.05;;;;;19.50;100434.00;;;;2071348;28;20272;-50
2023/01/14 02:21:23;;;;;;;8.68;2.97;;;;;19.50;100442.00;;;;2069959;28;20210;-50
2023/01/14 02:22:32;;;;;;;9.68;3.05;;;;;19.40;100423.00;;;;2059338;28;20702;-50
2023/01/14 02:23:59;;;;;;;10.32;3.00;;;;;19.50;100426.00;;;;2064997;28;20214;-50
2023/01/14 02:25:20;;;;;;;7.90;3.58;;;;;19.40;100432.00;;;;2079432;28;20225;-50
2023/01/14 02:26:36;;;;;;;9.75;3.05;;;;;19.40;100424.00;;;;2079742;28;20212;-49
2023/01/14 02:27:46;;;;;;;10.23;3.03;;;;;19.40;100428.00;;;;2079148;28;20209;-51
2023/01/14 02:29:05;;;;;;;7.68;3.00;;;;;19.40;100423.00;;;;2078655;28;20268;-50
2023/01/14 02:30:12;;;;;;;11.82;3.25;;;;;19.40;100433.00;;;;2079644;28;20568;-50
2023/01/14 02:31:23;;;;;;;7.97;2.92;;;;;19.40;100420.00;;;;2079725;28;20221;-50
2023/01/14 02:33:00;;;;;;;8.48;3.25;;;;;19.40;100426.00;;;;2071630;28;20249;-50
2023/01/14 02:34:04;;;;;;;9.23;3.25;;;;;19.40;100434.00;;;;2062280;28;20221;-50
2023/01/14 02:35:13;;;;;;;7.60;3.22;;;;;19.40;100435.00;;;;2071669;28;20245;-50
2023/01/14 02:36:19;;;;;;;9.35;3.30;;;;;19.40;100423.00;;;;2076017;28;20654;-50
2023/01/14 02:37:45;;;;;;;9.07;2.70;;;;;19.40;100414.00;;;;2079868;28;20225;-51
2023/01/14 02:38:57;;;;;;;10.35;3.03;;;;;19.40;100415.00;;;;2073892;28;20212;-49
2023/01/14 02:40:02;;;;;;;12.05;3.30;;;;;19.40;100414.00;;;;2067299;28;20233;-49
2023/01/14 02:41:20;;;;;;;9.35;3.30;;;;;19.40;100408.00;;;;2072638;28;20241;-50
2023/01/14 02:45:51;;;;;;;7.05;3.10;;;;;19.40;100416.00;;;;2072715;28;20764;-50
2023/01/14 02:47:00;;;;;;;9.70;2.70;;;;;19.40;100410.00;;;;2053736;28;20258;-49
2023/01/14 02:48:00;;;;;;;10.50;4.60;;;;;19.40;100415.00;;;;2046275;28;20665;-50
2023/01/14 02:49:01;;;;;;;10.40;3.50;;;;;19.40;100410.00;;;;2038746;28;20257;-50
2023/01/14 02:50:01;;;;;;;7.80;2.97;;;;;19.30;100423.00;;;;2063244;28;20225;-50
2023/01/14 02:51:01;;;;;;;9.20;2.63;;;;;19.30;100422.00;;;;2063097;28;20219;-51
2023/01/14 02:52:05;;;;;;;11.90;2.70;;;;;19.40;100416.00;;;;2060755;28;20307;-49
2023/01/14 02:53:09;;;;;;;11.43;3.40;;;;;19.40;100413.00;;;;2070685;28;20225;-50
2023/01/14 02:54:10;;;;;;;11.88;3.90;;;;;19.30;100415.00;;;;2071512;28;20339;-54
2023/01/14 02:55:26;;;;;;;10.87;3.10;;;;;19.30;100415.00;;;;2079393;28;20587;-50
2023/01/14 02:56:26;;;;;;;11.07;3.05;;;;;19.40;100415.00;;;;2077369;28;20442;-50
2023/01/14 02:57:53;;;;;;;8.10;2.77;;;;;19.30;100411.00;;;;2063058;28;20622;-50
2023/01/14 02:59:12;;;;;;;7.32;3.15;;;;;19.40;100403.00;;;;2067566;28;20220;-50
2023/01/14 03:00:16;;;;;;;7.50;2.80;;;;;19.30;100398.00;;;;2079256;28;20296;-51
2023/01/14 03:01:26;;;;;;;8.32;3.00;;;;;19.30;100402.00;;;;2079079;28;20206;-50
2023/01/14 03:03:04;;;;;;;10.15;3.38;;;;;19.30;100400.00;;;;2078159;28;20243;-49
2023/01/14 03:04:29;;;;;;;7.40;3.35;;;;;19.30;100396.00;;;;2078081;28;20274;-50
2023/01/14 03:06:03;;;;;;;7.75;2.90;;;;;19.30;100390.00;;;;2070859;28;20225;-50
2023/01/14 03:07:15;;;;;;;9.52;2.78;;;;;19.30;100389.00;;;;2067404;28;20229;-51
2023/01/14 03:08:38;;;;;;;10.55;3.13;;;;;19.30;100379.00;;;;2071066;28;20207;-50
2023/01/14 03:09:57;;;;;;;9.32;3.17;;;;;19.30;100372.00;;;;2074301;28;20217;-49
2023/01/14 03:11:02;;;;;;;8.32;3.15;;;;;19.30;100373.00;;;;2078943;28;20213;-50
2023/01/14 03:12:16;;;;;;;8.43;3.20;;;;;19.30;100365.00;;;;2077817;28;20221;-50
2023/01/14 03:13:30;;;;;;;8.52;2.70;;;;;19.30;100368.00;;;;2079003;28;20212;-51
2023/01/14 03:14:33;;;;;;;6.63;2.35;;;;;19.30;100368.00;;;;2067320;28;20257;-49
2023/01/14 03:15:48;;;;;;;7.70;3.10;;;;;19.30;100361.00;;;;2066637;28;20226;-50
2023/01/14 03:16:54;;;;;;;7.93;3.00;;;;;19.30;100364.00;;;;2062637;28;20226;-50
2023/01/14 03:17:57;;;;;;;8.60;2.92;;;;;19.30;100354.00;;;;2061533;28;20223;-50
2023/01/14 03:19:08;;;;;;;8.27;2.90;;;;;19.30;100359.00;;;;2062844;28;20219;-50
2023/01/14 03:20:12;;;;;;;8.40;2.90;;;;;19.30;100354.00;;;;2066120;28;20218;-50
2023/01/14 03:21:17;;;;;;;7.70;2.70;;;;;19.30;100353.00;;;;2063083;28;20758;-50
2023/01/14 03:22:18;;;;;;;10.73;2.95;;;;;19.30;100353.00;;;;2061297;28;20301;-50
2023/01/14 03:23:20;;;;;;;9.57;3.40;;;;;19.30;100349.00;;;;2055810;28;20214;-50
2023/01/14 03:24:32;;;;;;;10.70;3.30;;;;;19.30;100360.00;;;;2062911;28;20215;-50
2023/01/14 03:25:33;;;;;;;7.05;3.35;;;;;19.30;100358.00;;;;2070319;28;20220;-49
2023/01/14 03:26:34;;;;;;;11.07;3.15;;;;;19.30;100341.00;;;;2062516;28;20213;-50
2023/01/14 03:27:35;;;;;;;10.80;3.30;;;;;19.30;100351.00;;;;2063008;28;20246;-50
2023/01/14 03:28:37;;;;;;;5.67;2.50;;;;;19.30;100348.00;;;;2062904;28;20691;-50
2023/01/14 03:29:42;;;;;;;10.40;3.05;;;;;19.30;100353.00;;;;2062985;28;20717;-50
2023/01/14 03:30:44;;;;;;;11.05;3.38;;;;;19.30;100346.00;;;;2055640;28;20730;-49
2023/01/14 03:31:48;;;;;;;7.43;3.20;;;;;19.30;100352.00;;;;2063223;28;20275;-49
2023/01/14 03:32:55;;;;;;;8.50;3.08;;;;;19.30;100354.00;;;;2070953;28;20297;-49
2023/01/14 03:34:00;;;;;;;6.90;2.80;;;;;19.30;100354.00;;;;2071445;28;20301;-50
2023/01/14 03:35:05;;;;;;;12.82;3.60;;;;;19.20;100353.00;;;;2071985;28;20221;-49
2023/01/14 03:36:06;;;;;;;8.02;2.80;;;;;19.20;100341.00;;;;2070712;28;20226;-50
2023/01/14 03:37:07;;;;;;;8.43;3.07;;;;;19.20;100355.00;;;;2062538;28;20263;-51
2023/01/14 03:38:12;;;;;;;9.60;3.10;;;;;19.20;100355.00;;;;2070878;28;20280;-50
2023/01/14 03:39:17;;;;;;;9.80;3.15;;;;;19.20;100344.00;;;;2071213;28;20215;-49
2023/01/14 03:40:18;;;;;;;10.13;3.03;;;;;19.20;100345.00;;;;2071094;28;20240;-50
2023/01/14 03:42:17;;;;;;;8.43;2.97;;;;;19.30;100348.00;;;;2070306;28;20210;-51
2023/01/14 03:42:44;;;;;;;10.43;2.67;;;;;19.30;100350.00;;;;2072081;28;20835;-50
2023/01/14 03:43:47;;;;;;;9.88;3.30;;;;;19.20;100344.00;;;;2079124;28;20220;-50
2023/01/14 03:44:57;;;;;;;8.50;2.70;;;;;19.30;100353.00;;;;2078472;28;20241;-56
2023/01/14 03:45:57;;;;;;;6.97;2.50;;;;;19.30;100346.00;;;;2071586;28;20579;-50
2023/01/14 03:46:57;;;;;;;9.10;3.00;;;;;19.20;100340.00;;;;2070458;28;20241;-50
2023/01/14 03:47:58;;;;;;;8.20;2.77;;;;;19.20;100340.00;;;;2070923;28;20233;-50
2023/01/14 03:48:58;;;;;;;9.07;3.00;;;;;19.20;100340.00;;;;2078841;28;20303;-50
2023/01/14 03:50:00;;;;;;;9.27;2.83;;;;;19.20;100341.00;;;;2078691;28;20217;-50
2023/01/14 03:51:08;;;;;;;8.52;2.80;;;;;19.20;100342.00;;;;2062724;28;20222;-50
2023/01/14 03:52:18;;;;;;;9.32;2.97;;;;;19.20;100338.00;;;;2070218;28;20253;-49
2023/01/14 03:53:24;;;;;;;9.93;2.60;;;;;19.20;100345.00;;;;2070766;28;20217;-50
2023/01/14 03:54:29;;;;;;;11.63;3.72;;;;;19.20;100351.00;;;;2064154;28;20553;-50
2023/01/14 03:55:39;;;;;;;11.18;2.95;;;;;19.20;100348.00;;;;2070988;28;20222;-50
2023/01/14 03:56:58;;;;;;;9.30;2.63;;;;;19.20;100349.00;;;;2078944;28;20801;-50
2023/01/14 03:58:19;;;;;;;9.73;3.03;;;;;19.20;100343.00;;;;2078314;28;20694;-50
2023/01/14 03:59:45;;;;;;;9.23;2.80;;;;;19.20;100341.00;;;;2072829;28;20838;-54
2023/01/14 04:00:57;;;;;;;9.70;3.10;;;;;19.20;100346.00;;;;2067955;28;20216;-50
2023/01/14 04:01:59;;;;;;;7.07;2.65;;;;;19.10;100346.00;;;;2070436;28;20875;-49
2023/01/14 04:03:00;;;;;;;10.13;3.25;;;;;19.20;100342.00;;;;2078650;28;20217;-50
2023/01/14 04:04:00;;;;;;;10.13;2.80;;;;;19.20;100337.00;;;;2078543;28;20790;-50
2023/01/14 04:05:01;;;;;;;9.63;2.87;;;;;19.20;100338.00;;;;2066313;28;20257;-49
2023/01/14 04:06:01;;;;;;;6.47;2.57;;;;;19.20;100340.00;;;;2078572;28;20217;-50
2023/01/14 04:07:02;;;;;;;7.90;2.97;;;;;19.20;100341.00;;;;2070339;28;20222;-50
2023/01/14 04:08:02;;;;;;;6.67;2.57;;;;;19.20;100343.00;;;;2061949;28;20696;-49
2023/01/14 04:09:04;;;;;;;5.67;2.53;;;;;19.20;100293.00;;;;2062111;28;20226;-50
2023/01/14 04:10:05;;;;;;;6.50;2.15;;;;;19.20;100332.00;;;;2070743;28;20396;-50
2023/01/14 04:11:05;;;;;;;6.60;2.87;;;;;19.20;100334.00;;;;2079295;28;20225;-51
2023/01/14 04:12:06;;;;;;;4.80;2.30;;;;;19.20;100336.00;;;;2077213;28;20241;-49
2023/01/14 04:15:44;;;;;;;7.95;3.30;;;;;19.20;100320.00;;;;2075878;28;20209;-50
2023/01/14 04:16:44;;;;;;;6.80;2.60;;;;;19.20;100321.00;;;;2079080;28;20666;-50
2023/01/14 04:17:44;;;;;;;9.63;2.73;;;;;19.20;100314.00;;;;2078717;28;20592;-49
2023/01/14 04:18:45;;;;;;;8.43;3.00;;;;;19.10;100312.00;;;;2079112;28;20224;-49
2023/01/14 04:19:45;;;;;;;9.37;3.27;;;;;19.10;100312.00;;;;2079534;28;20288;-50
2023/01/14 04:20:45;;;;;;;9.10;2.53;;;;;19.10;100311.00;;;;2078661;28;20217;-49
2023/01/14 04:21:46;;;;;;;10.27;3.20;;;;;19.10;100313.00;;;;2078314;28;20217;-50
2023/01/14 04:22:46;;;;;;;6.77;2.47;;;;;19.20;100308.00;;;;2078509;28;20218;-49
2023/01/14 04:23:46;;;;;;;6.07;2.07;;;;;19.10;100307.00;;;;2078022;28;20264;-50
2023/01/14 04:24:47;;;;;;;8.40;3.00;;;;;19.20;100309.00;;;;2078710;28;20237;-50
2023/01/14 04:25:47;;;;;;;7.83;2.60;;;;;19.20;100300.00;;;;2079198;28;20249;-50
2023/01/14 04:26:47;;;;;;;8.03;2.77;;;;;19.10;100299.00;;;;2078697;28;20217;-49
2023/01/14 04:27:48;;;;;;;8.47;2.80;;;;;19.10;100297.00;;;;2078825;28;20270;-49
2023/01/14 04:28:48;;;;;;;6.37;2.70;;;;;19.10;100292.00;;;;2078709;28;20209;-50
2023/01/14 04:29:48;;;;;;;6.60;2.67;;;;;19.10;100298.00;;;;2078309;28;20214;-50
2023/01/14 04:30:49;;;;;;;7.13;2.57;;;;;19.10;100299.00;;;;2078993;28;20312;-50
2023/01/14 04:31:49;;;;;;;7.83;3.13;;;;;19.20;100306.00;;;;2077573;28;20252;-49
2023/01/14 04:32:49;;;;;;;8.87;2.50;;;;;19.10;100290.00;;;;2078196;28;20777;-50
2023/01/14 04:33:50;;;;;;;12.93;3.20;;;;;19.10;100300.00;;;;2077933;28;20752;-50
2023/01/14 04:34:50;;;;;;;7.30;2.60;;;;;18.90;100300.00;;;;2077945;28;20724;-49
2023/01/14 04:35:51;;;;;;;6.83;2.67;;;;;19.10;100306.00;;;;2078196;28;20356;-50
2023/01/14 04:36:51;;;;;;;10.50;3.37;;;;;19.10;100297.00;;;;2078763;28;20227;-49
2023/01/14 04:37:54;;;;;;;8.50;2.60;;;;;19.10;100290.00;;;;2078496;28;20252;-50
2023/01/14 04:38:54;;;;;;;8.77;2.75;;;;;19.10;100286.00;;;;2078737;28;20227;-49
2023/01/14 04:39:55;;;;;;;10.33;3.17;;;;;19.10;100291.00;;;;2077759;28;20582;-52
2023/01/14 04:40:55;;;;;;;5.40;2.20;;;;;19.10;100285.00;;;;2078315;28;20224;-55
2023/01/14 04:43:15;;;;;;;6.35;2.80;;;;;19.10;100281.00;;;;2078551;28;20303;-50
2023/01/14 04:44:15;;;;;;;9.53;2.47;;;;;19.10;100277.00;;;;2078461;28;20222;-50
2023/01/14 04:45:16;;;;;;;7.47;2.23;;;;;19.10;100284.00;;;;2078490;28;20221;-51
2023/01/14 04:46:16;;;;;;;8.40;2.72;;;;;19.10;100282.00;;;;2078624;28;20237;-50
2023/01/14 04:47:17;;;;;;;7.07;2.70;;;;;19.10;100277.00;;;;2078619;28;20245;-49
2023/01/14 04:48:20;;;;;;;6.83;2.43;;;;;19.10;100282.00;;;;2078366;28;20221;-50
2023/01/14 04:49:21;;;;;;;9.77;2.60;;;;;19.10;100269.00;;;;2078732;28;20677;-50
2023/01/14 04:50:41;;;;;;;10.73;2.87;;;;;19.10;100268.00;;;;2078382;28;20217;-49
2023/01/14 04:51:41;;;;;;;7.13;2.60;;;;;19.10;100262.00;;;;2078555;28;20639;-49
2023/01/14 04:52:41;;;;;;;5.93;2.53;;;;;19.10;100262.00;;;;2077817;28;20263;-51
2023/01/14 04:53:42;;;;;;;6.67;2.23;;;;;19.10;100260.00;;;;2078537;28;20600;-50
2023/01/14 04:54:42;;;;;;;6.03;2.37;;;;;19.10;100262.00;;;;2078693;28;20247;-50
2023/01/14 04:55:45;;;;;;;5.27;2.20;;;;;19.10;100255.00;;;;2078375;28;20241;-51
2023/01/14 04:56:45;;;;;;;9.88;2.80;;;;;19.10;100249.00;;;;2078480;28;20209;-50
2023/01/14 04:57:45;;;;;;;7.60;2.57;;;;;19.10;100255.00;;;;2078845;28;20348;-50
2023/01/14 04:58:47;;;;;;;8.43;2.90;;;;;19.10;100249.00;;;;2079212;28;20262;-50
2023/01/14 04:59:47;;;;;;;8.65;3.40;;;;;19.10;100242.00;;;;2079035;28;20214;-50
2023/01/14 05:00:47;;;;;;;10.40;2.80;;;;;19.10;100247.00;;;;2078721;28;20608;-49
2023/01/14 05:01:47;;;;;;;6.87;2.67;;;;;19.10;100241.00;;;;2078256;28;20636;-50
2023/01/14 05:02:48;;;;;;;9.87;2.67;;;;;19.10;100243.00;;;;2078386;28;21347;-50
2023/01/14 05:03:48;;;;;;;9.07;2.70;;;;;19.00;100239.00;;;;2078566;28;20573;-50
2023/01/14 05:04:48;;;;;;;7.17;2.40;;;;;19.10;100237.00;;;;2078981;28;20296;-50
2023/01/14 05:05:49;;;;;;;8.17;2.53;;;;;19.10;100239.00;;;;2078942;28;20221;-50
2023/01/14 05:06:49;;;;;;;5.37;2.13;;;;;19.10;100240.00;;;;2078505;28;20237;-49
2023/01/14 05:07:49;;;;;;;7.10;2.50;;;;;19.10;100234.00;;;;2078491;28;20767;-50
2023/01/14 05:08:50;;;;;;;7.93;2.27;;;;;19.00;100232.00;;;;2079028;28;20743;-49
2023/01/14 05:09:50;;;;;;;8.77;2.90;;;;;19.00;100238.00;;;;2079064;28;20221;-50
2023/01/14 05:10:50;;;;;;;6.43;2.50;;;;;19.00;100229.00;;;;2077375;28;20236;-51
2023/01/14 05:11:51;;;;;;;7.03;2.50;;;;;19.00;100213.00;;;;2077311;28;20213;-50
2023/01/14 05:12:57;;;;;;;8.07;2.90;;;;;19.00;100216.00;;;;2078971;28;20217;-50
2023/01/14 05:13:57;;;;;;;7.80;2.63;;;;;19.10;100177.00;;;;2076705;28;20213;-50
2023/01/14 05:14:57;;;;;;;10.03;2.30;;;;;19.10;100217.00;;;;2070693;28;20683;-51
2023/01/14 05:16:00;;;;;;;5.43;2.63;;;;;19.10;100222.00;;;;2070644;28;20587;-50
2023/01/14 05:17:00;;;;;;;6.68;2.35;;;;;19.00;100217.00;;;;2070459;28;20222;-50
2023/01/14 05:18:00;;;;;;;9.13;2.40;;;;;19.10;100214.00;;;;2076412;28;20747;-49
2023/01/14 05:19:01;;;;;;;8.73;2.37;;;;;19.10;100211.00;;;;2078891;28;20213;-49
2023/01/14 05:20:01;;;;;;;7.53;2.70;;;;;19.10;100207.00;;;;2071676;28;20503;-51
2023/01/14 05:21:01;;;;;;;8.90;2.77;;;;;19.10;100202.00;;;;2077874;28;20787;-52
2023/01/14 05:22:02;;;;;;;6.27;2.10;;;;;19.10;100205.00;;;;2076346;28;20626;-55
2023/01/14 05:23:04;;;;;;;6.03;2.30;;;;;19.10;100203.00;;;;2078687;28;20220;-53